createdAt,value
2022-10-31T00:00:00.292Z,987.1
2022-10-31T00:05:00.295Z,986.7
2022-10-31T00:10:00.289Z,986.2
2022-10-31T00:15:00.303Z,986.7
2022-10-31T00:20:00.303Z,987.1
2022-10-31T00:25:00.312Z,987.1
2022-10-31T00:30:00.320Z,986.9
2022-10-31T00:35:00.314Z,987.1
2022-10-31T00:40:00.325Z,986.7
2022-10-31T00:45:00.325Z,986.4
2022-10-31T00:50:00.329Z,986.7
2022-10-31T00:55:00.339Z,986.9
2022-10-31T01:00:00.363Z,987.1
2022-10-31T01:05:00.342Z,987.1
2022-10-31T01:10:00.353Z,987.3
2022-10-31T01:15:00.354Z,987.1
2022-10-31T01:20:00.356Z,987.3
2022-10-31T01:25:00.367Z,987.5
2022-10-31T01:30:00.368Z,987.5
2022-10-31T01:35:00.377Z,987.1
2022-10-31T01:40:00.391Z,987.1
2022-10-31T01:45:00.387Z,987.1
2022-10-31T01:50:00.392Z,987.1
2022-10-31T01:55:00.394Z,987.1
2022-10-31T02:00:00.402Z,987.1
2022-10-31T02:05:00.401Z,987.1
2022-10-31T02:10:00.413Z,987.3
2022-10-31T02:15:00.417Z,987.1
2022-10-31T02:20:00.450Z,987.1
2022-10-31T02:25:00.445Z,987.5
2022-10-31T02:30:00.542Z,987.5
2022-10-31T02:35:00.561Z,987.5
2022-10-31T02:40:00.530Z,987.7
2022-10-31T02:45:00.501Z,987.7
2022-10-31T02:50:00.454Z,987.5
2022-10-31T02:55:00.466Z,987.3
2022-10-31T03:00:00.462Z,987.1
2022-10-31T03:05:01.483Z,987.5
2022-10-31T03:10:01.521Z,987.1
2022-10-31T03:15:01.480Z,987.1
2022-10-31T03:20:01.497Z,987.1
2022-10-31T03:25:01.474Z,987.1
2022-10-31T03:30:01.486Z,987.3
2022-10-31T03:35:01.487Z,987.1
2022-10-31T03:40:01.508Z,987.3
2022-10-31T03:45:01.514Z,987.1
2022-10-31T03:50:01.524Z,987.1
2022-10-31T03:55:00.160Z,987.1
2022-10-31T04:00:00.195Z,987.3
2022-10-31T04:05:00.165Z,987.5
2022-10-31T04:10:00.181Z,987.5
2022-10-31T04:15:00.176Z,987.5
2022-10-31T04:20:00.176Z,987.5
2022-10-31T04:25:00.183Z,987.5
2022-10-31T04:30:00.193Z,987.7
2022-10-31T04:35:00.248Z,987.5
2022-10-31T04:40:00.194Z,987.7
2022-10-31T04:45:00.207Z,987.7
2022-10-31T04:50:00.201Z,987.1
2022-10-31T04:55:00.220Z,987.5
2022-10-31T05:00:00.215Z,987.5
2022-10-31T05:05:00.224Z,987.5
2022-10-31T05:10:00.229Z,987.3
2022-10-31T05:15:00.251Z,987.1
2022-10-31T05:20:00.237Z,986.9
2022-10-31T05:25:00.242Z,987.1
2022-10-31T05:35:00.250Z,987.5
2022-10-31T05:40:05.323Z,987.5
2022-10-31T05:45:00.266Z,987.7
2022-10-31T05:50:00.314Z,988
2022-10-31T05:55:00.294Z,988
2022-10-31T06:00:00.306Z,988
2022-10-31T06:05:00.408Z,988
2022-10-31T06:10:00.302Z,988
2022-10-31T06:15:00.315Z,988
2022-10-31T06:20:00.313Z,988
2022-10-31T06:25:00.305Z,988
2022-10-31T06:30:00.319Z,987.7
2022-10-31T06:35:00.318Z,988
2022-10-31T06:40:00.333Z,988
2022-10-31T06:45:00.360Z,988
2022-10-31T06:50:00.362Z,987.7
2022-10-31T06:55:00.353Z,987.5
2022-10-31T07:00:00.363Z,987.5
2022-10-31T07:05:00.369Z,987.5
2022-10-31T07:10:00.553Z,987.1
2022-10-31T07:15:00.392Z,987.1
2022-10-31T07:20:00.417Z,987.1
2022-10-31T07:25:00.392Z,987.1
2022-10-31T07:30:00.442Z,986.9
2022-10-31T07:35:00.596Z,986.4
2022-10-31T07:40:00.521Z,986.2
2022-10-31T07:45:00.640Z,986.2
2022-10-31T07:50:00.465Z,985.4
2022-10-31T07:55:00.486Z,984
2022-10-31T08:00:00.492Z,984.5
2022-10-31T08:05:01.453Z,984
2022-10-31T08:10:00.455Z,982.7
2022-10-31T08:15:00.445Z,982.7
2022-10-31T08:20:00.455Z,982.1
2022-10-31T08:25:00.450Z,981.9
2022-10-31T08:30:00.471Z,981.9
2022-10-31T08:35:00.486Z,980.4
2022-10-31T08:40:00.469Z,980.1
2022-10-31T08:45:00.472Z,979.9
2022-10-31T08:50:00.460Z,979.7
2022-10-31T08:55:00.458Z,978.8
2022-10-31T09:00:00.460Z,978
2022-10-31T09:05:00.466Z,979.3
2022-10-31T09:10:00.463Z,978.6
2022-10-31T09:15:00.482Z,978.8
2022-10-31T09:20:00.477Z,977.5
2022-10-31T09:25:00.484Z,975.8
2022-10-31T09:30:00.486Z,975.1
2022-10-31T09:35:00.566Z,975.4
2022-10-31T09:40:00.502Z,974
2022-10-31T09:45:00.506Z,973.6
2022-10-31T09:50:00.619Z,973.2
2022-10-31T09:55:00.335Z,972.7
2022-10-31T10:00:00.190Z,972.7
2022-10-31T10:05:00.090Z,973.2
2022-10-31T10:10:00.130Z,971.9
2022-10-31T10:15:00.139Z,971
2022-10-31T10:20:00.117Z,971.4
2022-10-31T10:25:00.129Z,971
2022-10-31T10:30:00.147Z,972.3
2022-10-31T10:35:00.128Z,972.7
2022-10-31T10:40:00.136Z,972.5
2022-10-31T10:45:00.139Z,972.5
2022-10-31T10:50:00.149Z,972.5
2022-10-31T10:55:00.187Z,972.3
2022-10-31T11:00:00.143Z,972.1
2022-10-31T11:05:00.153Z,972.7
2022-10-31T11:10:00.166Z,973.4
2022-10-31T11:15:00.171Z,973.4
2022-10-31T11:20:00.171Z,973.2
2022-10-31T11:25:00.188Z,973
2022-10-31T11:30:00.941Z,973.8
2022-10-31T11:35:00.187Z,974.5
2022-10-31T11:40:00.211Z,974.9
2022-10-31T11:45:00.210Z,974.9
2022-10-31T11:50:00.200Z,975.8
2022-10-31T11:55:00.240Z,975.6
2022-10-31T12:00:00.216Z,976.2
2022-10-31T12:05:00.257Z,975.8
2022-10-31T12:10:00.221Z,975.4
2022-10-31T12:15:00.225Z,975.8
2022-10-31T12:20:00.231Z,975.4
2022-10-31T12:25:00.232Z,975.4
2022-10-31T12:30:00.237Z,975.1
2022-10-31T12:35:00.247Z,974.5
2022-10-31T12:40:00.249Z,974.5
2022-10-31T12:45:00.269Z,974.3
2022-10-31T12:50:00.263Z,974.5
2022-10-31T12:55:00.350Z,973.6
2022-10-31T13:00:00.278Z,972.7
2022-10-31T13:05:00.271Z,971.9
2022-10-31T13:10:00.289Z,971.4
2022-10-31T13:15:00.289Z,972.1
2022-10-31T13:20:00.308Z,971.9
2022-10-31T13:25:00.310Z,972.1
2022-10-31T13:30:00.302Z,971.9
2022-10-31T13:35:00.350Z,971.7
2022-10-31T13:40:00.315Z,973.2
2022-10-31T13:45:00.317Z,973.4
2022-10-31T13:50:00.347Z,973.6
2022-10-31T13:55:00.327Z,973.6
2022-10-31T14:00:00.348Z,974.3
2022-10-31T14:05:00.351Z,974.5
2022-10-31T14:10:00.346Z,974.5
2022-10-31T14:15:00.354Z,974.3
2022-10-31T14:20:00.362Z,974.9
2022-10-31T14:25:00.357Z,974.9
2022-10-31T14:30:00.359Z,975.1
2022-10-31T14:35:00.375Z,975.4
2022-10-31T14:40:00.373Z,975.4
2022-10-31T14:45:00.375Z,975.8
2022-10-31T14:50:00.391Z,975.8
2022-10-31T14:55:00.387Z,976.2
2022-10-31T15:00:03.660Z,976.2
2022-10-31T15:05:00.395Z,976.4
2022-10-31T15:10:00.403Z,976
2022-10-31T15:15:00.433Z,976.7
2022-10-31T15:20:00.414Z,976.7
2022-10-31T15:25:00.418Z,977.1
2022-10-31T15:30:00.442Z,977.1
2022-10-31T15:35:00.428Z,978
2022-10-31T15:40:00.437Z,977.7
2022-10-31T15:45:00.441Z,978.2
2022-10-31T15:50:00.428Z,978.4
2022-10-31T15:55:00.288Z,979
2022-10-31T16:00:00.156Z,979.5
2022-10-31T16:05:00.098Z,979.7
2022-10-31T16:10:00.245Z,980.4
2022-10-31T16:15:00.102Z,981
2022-10-31T16:20:00.106Z,980.8
2022-10-31T16:25:00.150Z,981
2022-10-31T16:30:00.167Z,981.2
2022-10-31T16:35:00.160Z,981.4
2022-10-31T16:40:00.252Z,982.3
2022-10-31T16:45:00.225Z,982.7
2022-10-31T16:50:00.305Z,983.2
2022-10-31T16:55:00.186Z,982.7
2022-10-31T17:00:00.352Z,983.2
2022-10-31T17:05:00.207Z,983.2
2022-10-31T17:10:00.360Z,983.6
2022-10-31T17:15:00.194Z,983.6
2022-10-31T17:20:00.261Z,984
2022-10-31T17:25:00.291Z,983.6
2022-10-31T17:30:00.214Z,983.6
2022-10-31T17:35:00.229Z,983.6
2022-10-31T17:40:00.229Z,984
2022-10-31T17:45:00.235Z,984.9
2022-10-31T17:50:00.254Z,984.9
2022-10-31T17:55:00.265Z,984.5
2022-10-31T18:00:00.545Z,984.7
2022-10-31T18:05:00.222Z,984.9
2022-10-31T18:10:00.257Z,985.8
2022-10-31T18:15:00.302Z,984.9
2022-10-31T18:20:00.311Z,985.1
2022-10-31T18:25:02.190Z,984.9
2022-10-31T18:30:00.382Z,984.9
2022-10-31T18:35:00.257Z,984.9
2022-10-31T18:40:00.234Z,985.4
2022-10-31T18:45:06.810Z,986
2022-10-31T18:50:00.281Z,985.6
2022-10-31T18:55:00.285Z,985.6
2022-10-31T19:00:00.274Z,985.6
2022-10-31T19:05:00.267Z,985.4
2022-10-31T19:10:00.286Z,985.6
2022-10-31T19:15:00.335Z,985.4
2022-10-31T19:20:00.299Z,985.6
2022-10-31T19:25:00.322Z,986.2
2022-10-31T19:30:00.299Z,985.8
2022-10-31T19:35:00.299Z,985.8
2022-10-31T19:40:00.309Z,985.8
2022-10-31T19:45:00.323Z,985.8
2022-10-31T19:50:00.327Z,986.2
2022-10-31T19:55:00.325Z,986.4
2022-10-31T20:00:00.334Z,986.7
2022-10-31T20:05:00.339Z,986.7
2022-10-31T20:10:00.347Z,986.9
2022-10-31T20:15:00.343Z,986.7
2022-10-31T20:20:00.351Z,987.1
2022-10-31T20:25:00.364Z,987.3
2022-10-31T20:30:00.359Z,987.1
2022-10-31T20:35:00.387Z,987.1
2022-10-31T20:40:00.401Z,987.1
2022-10-31T20:45:00.371Z,987.1
2022-10-31T20:50:00.396Z,986.9
2022-10-31T20:55:00.418Z,986.7
2022-10-31T21:00:00.393Z,986.7
2022-10-31T21:05:00.392Z,986.7
2022-10-31T21:10:00.404Z,986.4
2022-10-31T21:15:00.405Z,986.7
2022-10-31T21:20:00.415Z,986.7
2022-10-31T21:25:00.431Z,986.9
2022-10-31T21:30:00.417Z,987.1
2022-10-31T21:35:00.447Z,986.7
2022-10-31T21:40:00.426Z,986.9
2022-10-31T21:45:00.440Z,986.9
2022-10-31T21:50:00.530Z,986.7
2022-10-31T21:55:00.287Z,986.7
2022-10-31T22:00:00.176Z,986.2
2022-10-31T22:05:00.095Z,986.7
2022-10-31T22:10:00.119Z,986.7
2022-10-31T22:15:00.125Z,986.4
2022-10-31T22:20:00.107Z,986.4
2022-10-31T22:25:00.151Z,986.4
2022-10-31T22:30:00.136Z,986.4
2022-10-31T22:35:00.133Z,986.7
2022-10-31T22:40:00.138Z,986.9
2022-10-31T22:45:00.133Z,987.3
2022-10-31T22:50:00.176Z,986.9
2022-10-31T22:55:00.174Z,986.7
2022-10-31T23:00:00.153Z,986.4
2022-10-31T23:05:00.168Z,986.7
2022-10-31T23:10:00.201Z,986.9
2022-10-31T23:15:00.173Z,986.9
2022-10-31T23:20:00.209Z,986.7
2022-10-31T23:25:00.188Z,986.9
2022-10-31T23:30:00.186Z,986.9
2022-10-31T23:35:00.217Z,986.9
2022-10-31T23:40:00.271Z,987.1
2022-10-31T23:45:00.218Z,986.9
2022-10-31T23:50:00.236Z,987.1
2022-10-31T23:55:00.216Z,987.1
